Terminal Aerodrome Forecast
Issued by NWS

Home | Current Version | Previous Version | Graphics & Text | Print | Product List | Glossary On
Versions: 1 2 3 4 5 6 7 8 9 10 11 12 13 14 15 16 17 18 19 20 21 22
000
FTUS43 KABR 251735
TAFPIR
TAF
KPIR 251735Z 2518/2618 28013KT P6SM SCT030
     FM252200 27012KT P6SM VCSH SCT050
     FM260300 27006KT P6SM SCT200=

USA.gov is the U.S. government's official web portal to all federal, state and local government web resources and services.